sensor_id;sensor_type;location;lat;lon;timestamp;temperature;humidity
26186;DHT22;20067;48.764;9.176;2023-02-22T00:00:36;7.90;90.20
26186;DHT22;20067;48.764;9.176;2023-02-22T00:03:29;7.90;90.10
26186;DHT22;20067;48.764;9.176;2023-02-22T00:06:01;7.90;90.10
26186;DHT22;20067;48.764;9.176;2023-02-22T00:08:31;7.90;90.00
26186;DHT22;20067;48.764;9.176;2023-02-22T00:11:04;7.90;90.10
26186;DHT22;20067;48.764;9.176;2023-02-22T00:13:32;7.80;90.20
26186;DHT22;20067;48.764;9.176;2023-02-22T00:15:58;7.80;90.40
26186;DHT22;20067;48.764;9.176;2023-02-22T00:18:26;7.70;90.80
26186;DHT22;20067;48.764;9.176;2023-02-22T00:20:53;7.70;91.00
26186;DHT22;20067;48.764;9.176;2023-02-22T00:23:21;7.60;91.00
26186;DHT22;20067;48.764;9.176;2023-02-22T00:25:48;7.70;91.00
26186;DHT22;20067;48.764;9.176;2023-02-22T00:28:15;7.70;90.90
26186;DHT22;20067;48.764;9.176;2023-02-22T00:30:42;7.50;91.30
26186;DHT22;20067;48.764;9.176;2023-02-22T00:33:11;7.50;91.30
26186;DHT22;20067;48.764;9.176;2023-02-22T00:35:38;7.60;91.30
26186;DHT22;20067;48.764;9.176;2023-02-22T00:38:04;7.60;91.30
26186;DHT22;20067;48.764;9.176;2023-02-22T00:40:32;7.60;91.30
26186;DHT22;20067;48.764;9.176;2023-02-22T00:42:59;7.60;91.30
26186;DHT22;20067;48.764;9.176;2023-02-22T00:45:30;7.40;91.30
26186;DHT22;20067;48.764;9.176;2023-02-22T00:47:56;7.40;91.30
26186;DHT22;20067;48.764;9.176;2023-02-22T00:50:24;7.50;91.30
26186;DHT22;20067;48.764;9.176;2023-02-22T00:52:50;7.50;91.30
26186;DHT22;20067;48.764;9.176;2023-02-22T00:55:23;7.40;91.30
26186;DHT22;20067;48.764;9.176;2023-02-22T00:57:49;7.50;91.30
26186;DHT22;20067;48.764;9.176;2023-02-22T01:00:19;7.60;91.30
26186;DHT22;20067;48.764;9.176;2023-02-22T01:02:45;7.50;91.30
26186;DHT22;20067;48.764;9.176;2023-02-22T01:05:13;7.50;91.30
26186;DHT22;20067;48.764;9.176;2023-02-22T01:07:41;7.40;91.30
26186;DHT22;20067;48.764;9.176;2023-02-22T01:10:07;7.40;91.30
26186;DHT22;20067;48.764;9.176;2023-02-22T01:12:34;7.50;91.30
26186;DHT22;20067;48.764;9.176;2023-02-22T01:15:01;7.40;91.30
26186;DHT22;20067;48.764;9.176;2023-02-22T01:17:28;7.40;91.30
26186;DHT22;20067;48.764;9.176;2023-02-22T01:19:54;7.40;91.30
26186;DHT22;20067;48.764;9.176;2023-02-22T01:22:21;7.40;91.30
26186;DHT22;20067;48.764;9.176;2023-02-22T01:24:50;7.40;91.30
26186;DHT22;20067;48.764;9.176;2023-02-22T01:27:16;7.40;91.30
26186;DHT22;20067;48.764;9.176;2023-02-22T01:29:43;7.30;91.30
26186;DHT22;20067;48.764;9.176;2023-02-22T01:32:09;7.30;91.30
26186;DHT22;20067;48.764;9.176;2023-02-22T01:34:37;7.20;91.30
26186;DHT22;20067;48.764;9.176;2023-02-22T01:37:03;7.30;91.30
26186;DHT22;20067;48.764;9.176;2023-02-22T01:39:31;7.20;91.30
26186;DHT22;20067;48.764;9.176;2023-02-22T01:41:56;7.20;91.30
26186;DHT22;20067;48.764;9.176;2023-02-22T01:44:29;7.20;91.30
26186;DHT22;20067;48.764;9.176;2023-02-22T01:46:56;7.20;91.30
26186;DHT22;20067;48.764;9.176;2023-02-22T01:49:29;7.20;91.30
26186;DHT22;20067;48.764;9.176;2023-02-22T01:51:57;7.20;91.30
26186;DHT22;20067;48.764;9.176;2023-02-22T01:54:29;7.20;91.30
26186;DHT22;20067;48.764;9.176;2023-02-22T01:59:59;7.10;91.30
26186;DHT22;20067;48.764;9.176;2023-02-22T02:02:26;7.00;91.30
26186;DHT22;20067;48.764;9.176;2023-02-22T02:04:54;7.00;91.30
26186;DHT22;20067;48.764;9.176;2023-02-22T02:07:22;7.00;91.30
26186;DHT22;20067;48.764;9.176;2023-02-22T02:09:57;7.10;91.30
26186;DHT22;20067;48.764;9.176;2023-02-22T02:12:24;7.00;91.30
26186;DHT22;20067;48.764;9.176;2023-02-22T02:14:50;7.00;91.30
26186;DHT22;20067;48.764;9.176;2023-02-22T02:17:20;7.00;91.30
26186;DHT22;20067;48.764;9.176;2023-02-22T02:31:04;6.90;91.30
26186;DHT22;20067;48.764;9.176;2023-02-22T02:34:01;6.90;91.30
26186;DHT22;20067;48.764;9.176;2023-02-22T02:36:34;6.90;91.30
26186;DHT22;20067;48.764;9.176;2023-02-22T02:39:35;6.80;91.30
26186;DHT22;20067;48.764;9.176;2023-02-22T02:42:07;6.80;91.30
26186;DHT22;20067;48.764;9.176;2023-02-22T02:44:45;6.80;91.30
26186;DHT22;20067;48.764;9.176;2023-02-22T02:47:26;6.80;91.30
26186;DHT22;20067;48.764;9.176;2023-02-22T02:52:28;6.90;91.30
26186;DHT22;20067;48.764;9.176;2023-02-22T02:54:56;6.90;91.30
26186;DHT22;20067;48.764;9.176;2023-02-22T02:57:22;6.90;91.30
26186;DHT22;20067;48.764;9.176;2023-02-22T02:59:49;6.80;91.30
26186;DHT22;20067;48.764;9.176;2023-02-22T03:05:29;6.70;91.30
26186;DHT22;20067;48.764;9.176;2023-02-22T03:11:19;6.80;91.30
26186;DHT22;20067;48.764;9.176;2023-02-22T03:14:15;6.80;91.30
26186;DHT22;20067;48.764;9.176;2023-02-22T03:19:39;6.80;91.30
26186;DHT22;20067;48.764;9.176;2023-02-22T03:25:06;6.60;91.30
26186;DHT22;20067;48.764;9.176;2023-02-22T03:27:39;6.70;91.30
26186;DHT22;20067;48.764;9.176;2023-02-22T03:30:17;6.70;91.30
26186;DHT22;20067;48.764;9.176;2023-02-22T03:32:50;6.70;91.30
26186;DHT22;20067;48.764;9.176;2023-02-22T03:35:27;6.70;91.30
26186;DHT22;20067;48.764;9.176;2023-02-22T03:37:58;6.80;91.30
26186;DHT22;20067;48.764;9.176;2023-02-22T03:40:33;6.80;91.30
26186;DHT22;20067;48.764;9.176;2023-02-22T03:43:05;6.90;91.30
26186;DHT22;20067;48.764;9.176;2023-02-22T03:45:33;6.80;91.30
26186;DHT22;20067;48.764;9.176;2023-02-22T03:50:39;6.60;91.30
26186;DHT22;20067;48.764;9.176;2023-02-22T03:53:05;6.60;91.30
26186;DHT22;20067;48.764;9.176;2023-02-22T03:55:32;6.50;91.30
26186;DHT22;20067;48.764;9.176;2023-02-22T03:58:00;6.40;91.30
26186;DHT22;20067;48.764;9.176;2023-02-22T04:00:30;6.40;91.30
26186;DHT22;20067;48.764;9.176;2023-02-22T04:02:56;6.50;91.30
26186;DHT22;20067;48.764;9.176;2023-02-22T04:05:22;6.60;91.30
26186;DHT22;20067;48.764;9.176;2023-02-22T04:07:53;6.60;91.30
26186;DHT22;20067;48.764;9.176;2023-02-22T04:10:19;6.50;91.30
26186;DHT22;20067;48.764;9.176;2023-02-22T04:12:45;6.50;91.30
26186;DHT22;20067;48.764;9.176;2023-02-22T04:15:18;6.60;91.30
26186;DHT22;20067;48.764;9.176;2023-02-22T04:17:44;6.50;91.30
26186;DHT22;20067;48.764;9.176;2023-02-22T04:20:10;6.50;91.30
26186;DHT22;20067;48.764;9.176;2023-02-22T04:22:38;6.50;91.30
26186;DHT22;20067;48.764;9.176;2023-02-22T04:25:04;6.60;91.30
26186;DHT22;20067;48.764;9.176;2023-02-22T04:27:30;6.70;91.30
26186;DHT22;20067;48.764;9.176;2023-02-22T04:29:55;6.60;91.30
26186;DHT22;20067;48.764;9.176;2023-02-22T04:32:21;6.40;91.30
26186;DHT22;20067;48.764;9.176;2023-02-22T04:34:46;6.40;91.30
26186;DHT22;20067;48.764;9.176;2023-02-22T04:37:12;6.50;91.30
26186;DHT22;20067;48.764;9.176;2023-02-22T04:39:37;6.50;91.30
26186;DHT22;20067;48.764;9.176;2023-02-22T04:42:03;6.50;91.30
26186;DHT22;20067;48.764;9.176;2023-02-22T04:44:30;6.50;91.30
26186;DHT22;20067;48.764;9.176;2023-02-22T04:46:55;6.40;91.30
26186;DHT22;20067;48.764;9.176;2023-02-22T04:49:21;6.30;91.30
26186;DHT22;20067;48.764;9.176;2023-02-22T04:51:47;6.30;91.30
26186;DHT22;20067;48.764;9.176;2023-02-22T04:54:13;6.40;91.30
26186;DHT22;20067;48.764;9.176;2023-02-22T04:56:39;6.40;91.30
26186;DHT22;20067;48.764;9.176;2023-02-22T04:59:04;6.50;91.30
26186;DHT22;20067;48.764;9.176;2023-02-22T05:01:34;6.40;91.30
26186;DHT22;20067;48.764;9.176;2023-02-22T05:04:05;6.30;91.30
26186;DHT22;20067;48.764;9.176;2023-02-22T05:06:31;6.30;91.30
26186;DHT22;20067;48.764;9.176;2023-02-22T05:08:56;6.30;91.30
26186;DHT22;20067;48.764;9.176;2023-02-22T05:11:22;6.40;91.30
26186;DHT22;20067;48.764;9.176;2023-02-22T05:13:48;6.40;91.30
26186;DHT22;20067;48.764;9.176;2023-02-22T05:16:14;6.40;91.30
26186;DHT22;20067;48.764;9.176;2023-02-22T05:18:40;6.40;91.30
26186;DHT22;20067;48.764;9.176;2023-02-22T05:21:07;6.30;91.30
26186;DHT22;20067;48.764;9.176;2023-02-22T05:23:33;6.30;91.30
26186;DHT22;20067;48.764;9.176;2023-02-22T05:25:59;6.30;91.30
26186;DHT22;20067;48.764;9.176;2023-02-22T05:28:25;6.30;91.30
26186;DHT22;20067;48.764;9.176;2023-02-22T05:30:51;6.20;91.30
26186;DHT22;20067;48.764;9.176;2023-02-22T05:33:16;6.20;91.30
26186;DHT22;20067;48.764;9.176;2023-02-22T05:35:42;6.20;91.30
26186;DHT22;20067;48.764;9.176;2023-02-22T05:38:11;6.10;91.30
26186;DHT22;20067;48.764;9.176;2023-02-22T05:40:40;6.10;91.30
26186;DHT22;20067;48.764;9.176;2023-02-22T05:43:06;6.00;91.30
26186;DHT22;20067;48.764;9.176;2023-02-22T05:45:32;6.00;91.30
26186;DHT22;20067;48.764;9.176;2023-02-22T05:47:58;6.00;91.30
26186;DHT22;20067;48.764;9.176;2023-02-22T05:50:24;6.00;91.30
26186;DHT22;20067;48.764;9.176;2023-02-22T05:52:51;6.00;91.30
26186;DHT22;20067;48.764;9.176;2023-02-22T05:55:18;6.00;91.30
26186;DHT22;20067;48.764;9.176;2023-02-22T05:57:44;5.90;91.30
26186;DHT22;20067;48.764;9.176;2023-02-22T06:00:22;5.80;91.30
26186;DHT22;20067;48.764;9.176;2023-02-22T06:02:56;5.80;91.30
26186;DHT22;20067;48.764;9.176;2023-02-22T06:05:22;5.90;91.30
26186;DHT22;20067;48.764;9.176;2023-02-22T06:07:48;6.00;91.30
26186;DHT22;20067;48.764;9.176;2023-02-22T06:10:13;5.90;91.30
26186;DHT22;20067;48.764;9.176;2023-02-22T06:12:39;5.90;91.30
26186;DHT22;20067;48.764;9.176;2023-02-22T06:15:06;5.80;91.30
26186;DHT22;20067;48.764;9.176;2023-02-22T06:17:32;5.80;91.30
26186;DHT22;20067;48.764;9.176;2023-02-22T06:19:57;5.80;91.30
26186;DHT22;20067;48.764;9.176;2023-02-22T06:22:23;5.80;91.30
26186;DHT22;20067;48.764;9.176;2023-02-22T06:24:48;5.80;91.30
26186;DHT22;20067;48.764;9.176;2023-02-22T06:27:14;5.80;91.30
26186;DHT22;20067;48.764;9.176;2023-02-22T06:29:43;5.80;91.30
26186;DHT22;20067;48.764;9.176;2023-02-22T06:32:09;5.80;91.30
26186;DHT22;20067;48.764;9.176;2023-02-22T06:34:35;5.80;91.30
26186;DHT22;20067;48.764;9.176;2023-02-22T06:37:01;5.80;91.30
26186;DHT22;20067;48.764;9.176;2023-02-22T06:39:26;5.80;91.30
26186;DHT22;20067;48.764;9.176;2023-02-22T06:41:52;6.00;91.30
26186;DHT22;20067;48.764;9.176;2023-02-22T06:44:19;6.00;91.30
26186;DHT22;20067;48.764;9.176;2023-02-22T06:46:49;6.00;91.30
26186;DHT22;20067;48.764;9.176;2023-02-22T06:49:19;6.10;91.30
26186;DHT22;20067;48.764;9.176;2023-02-22T06:51:45;6.00;91.30
26186;DHT22;20067;48.764;9.176;2023-02-22T06:54:11;6.00;91.30
26186;DHT22;20067;48.764;9.176;2023-02-22T06:56:37;6.10;91.30
26186;DHT22;20067;48.764;9.176;2023-02-22T06:59:03;6.30;91.30
26186;DHT22;20067;48.764;9.176;2023-02-22T07:01:29;6.30;91.30
26186;DHT22;20067;48.764;9.176;2023-02-22T07:03:55;6.30;91.30
26186;DHT22;20067;48.764;9.176;2023-02-22T07:06:21;6.40;91.30
26186;DHT22;20067;48.764;9.176;2023-02-22T07:08:47;6.40;91.30
26186;DHT22;20067;48.764;9.176;2023-02-22T07:11:12;6.40;91.30
26186;DHT22;20067;48.764;9.176;2023-02-22T07:13:38;6.50;91.30
26186;DHT22;20067;48.764;9.176;2023-02-22T07:16:04;6.50;91.30
26186;DHT22;20067;48.764;9.176;2023-02-22T07:18:30;6.50;91.30
26186;DHT22;20067;48.764;9.176;2023-02-22T07:20:55;6.50;91.30
26186;DHT22;20067;48.764;9.176;2023-02-22T07:23:23;6.70;91.30
26186;DHT22;20067;48.764;9.176;2023-02-22T07:25:48;6.80;91.30
26186;DHT22;20067;48.764;9.176;2023-02-22T07:28:15;6.80;91.30
26186;DHT22;20067;48.764;9.176;2023-02-22T07:30:41;6.90;91.30
26186;DHT22;20067;48.764;9.176;2023-02-22T07:33:09;7.00;91.30
26186;DHT22;20067;48.764;9.176;2023-02-22T07:35:46;7.10;91.30
26186;DHT22;20067;48.764;9.176;2023-02-22T07:38:15;7.20;91.30
26186;DHT22;20067;48.764;9.176;2023-02-22T07:40:41;7.30;91.30
26186;DHT22;20067;48.764;9.176;2023-02-22T07:43:26;7.30;91.30
26186;DHT22;20067;48.764;9.176;2023-02-22T07:45:54;7.30;91.30
26186;DHT22;20067;48.764;9.176;2023-02-22T07:48:23;7.30;91.30
26186;DHT22;20067;48.764;9.176;2023-02-22T07:50:49;7.30;91.30
26186;DHT22;20067;48.764;9.176;2023-02-22T07:53:29;7.50;91.30
26186;DHT22;20067;48.764;9.176;2023-02-22T07:56:00;7.60;91.30
26186;DHT22;20067;48.764;9.176;2023-02-22T07:58:28;7.80;91.30
26186;DHT22;20067;48.764;9.176;2023-02-22T08:00:55;7.90;91.30
26186;DHT22;20067;48.764;9.176;2023-02-22T08:03:22;8.10;91.00
26186;DHT22;20067;48.764;9.176;2023-02-22T08:05:51;8.20;91.00
26186;DHT22;20067;48.764;9.176;2023-02-22T08:08:17;8.40;90.30
26186;DHT22;20067;48.764;9.176;2023-02-22T08:10:43;8.60;89.50
26186;DHT22;20067;48.764;9.176;2023-02-22T08:13:10;8.70;88.80
26186;DHT22;20067;48.764;9.176;2023-02-22T08:15:40;8.90;88.60
26186;DHT22;20067;48.764;9.176;2023-02-22T08:18:08;9.10;87.80
26186;DHT22;20067;48.764;9.176;2023-02-22T08:20:34;9.30;87.40
26186;DHT22;20067;48.764;9.176;2023-02-22T08:23:01;9.50;86.60
26186;DHT22;20067;48.764;9.176;2023-02-22T08:25:28;9.60;86.10
26186;DHT22;20067;48.764;9.176;2023-02-22T08:28:03;9.60;86.10
26186;DHT22;20067;48.764;9.176;2023-02-22T08:30:30;9.70;85.60
26186;DHT22;20067;48.764;9.176;2023-02-22T08:32:56;9.60;85.70
26186;DHT22;20067;48.764;9.176;2023-02-22T08:35:23;10.20;85.10
26186;DHT22;20067;48.764;9.176;2023-02-22T08:37:52;11.90;82.80
26186;DHT22;20067;48.764;9.176;2023-02-22T08:40:20;14.00;76.60
26186;DHT22;20067;48.764;9.176;2023-02-22T08:42:46;15.70;71.30
26186;DHT22;20067;48.764;9.176;2023-02-22T08:45:12;17.20;67.10
26186;DHT22;20067;48.764;9.176;2023-02-22T08:47:38;17.70;64.40
26186;DHT22;20067;48.764;9.176;2023-02-22T08:50:05;18.00;63.80
26186;DHT22;20067;48.764;9.176;2023-02-22T08:52:31;18.50;62.50
26186;DHT22;20067;48.764;9.176;2023-02-22T08:54:57;19.20;61.10
26186;DHT22;20067;48.764;9.176;2023-02-22T08:57:23;19.50;58.90
26186;DHT22;20067;48.764;9.176;2023-02-22T08:59:48;20.20;59.00
26186;DHT22;20067;48.764;9.176;2023-02-22T09:02:16;21.40;56.70
26186;DHT22;20067;48.764;9.176;2023-02-22T09:04:43;21.10;55.40
26186;DHT22;20067;48.764;9.176;2023-02-22T09:07:10;19.80;57.60
26186;DHT22;20067;48.764;9.176;2023-02-22T09:09:35;20.10;57.90
26186;DHT22;20067;48.764;9.176;2023-02-22T09:14:35;18.90;59.10
26186;DHT22;20067;48.764;9.176;2023-02-22T09:17:01;18.30;60.10
26186;DHT22;20067;48.764;9.176;2023-02-22T09:19:27;16.90;62.70
26186;DHT22;20067;48.764;9.176;2023-02-22T09:21:53;16.40;64.10
26186;DHT22;20067;48.764;9.176;2023-02-22T09:24:19;16.60;64.10
26186;DHT22;20067;48.764;9.176;2023-02-22T09:26:46;16.70;64.40
26186;DHT22;20067;48.764;9.176;2023-02-22T09:29:12;18.40;62.00
26186;DHT22;20067;48.764;9.176;2023-02-22T09:31:39;19.60;59.20
26186;DHT22;20067;48.764;9.176;2023-02-22T09:34:06;19.30;58.90
26186;DHT22;20067;48.764;9.176;2023-02-22T09:36:42;18.80;59.70
26186;DHT22;20067;48.764;9.176;2023-02-22T09:39:08;18.70;60.00
26186;DHT22;20067;48.764;9.176;2023-02-22T09:46:56;19.60;59.80
26186;DHT22;20067;48.764;9.176;2023-02-22T09:49:47;20.00;57.90
26186;DHT22;20067;48.764;9.176;2023-02-22T09:52:20;20.20;57.40
26186;DHT22;20067;48.764;9.176;2023-02-22T09:54:53;20.10;56.80
26186;DHT22;20067;48.764;9.176;2023-02-22T09:57:31;20.20;57.50
26186;DHT22;20067;48.764;9.176;2023-02-22T10:00:19;19.50;58.00
26186;DHT22;20067;48.764;9.176;2023-02-22T10:05:37;20.00;57.40
26186;DHT22;20067;48.764;9.176;2023-02-22T10:08:09;20.80;56.10
26186;DHT22;20067;48.764;9.176;2023-02-22T10:10:38;21.10;55.20
26186;DHT22;20067;48.764;9.176;2023-02-22T10:13:28;21.40;55.00
26186;DHT22;20067;48.764;9.176;2023-02-22T10:16:39;21.30;54.90
26186;DHT22;20067;48.764;9.176;2023-02-22T10:19:43;21.60;54.20
26186;DHT22;20067;48.764;9.176;2023-02-22T10:23:28;22.70;52.50
26186;DHT22;20067;48.764;9.176;2023-02-22T10:25:25;22.60;51.70
26186;DHT22;20067;48.764;9.176;2023-02-22T10:28:19;20.40;54.90
26186;DHT22;20067;48.764;9.176;2023-02-22T10:30:50;19.20;58.30
26186;DHT22;20067;48.764;9.176;2023-02-22T10:33:50;19.50;58.30
26186;DHT22;20067;48.764;9.176;2023-02-22T10:36:19;19.60;57.60
26186;DHT22;20067;48.764;9.176;2023-02-22T10:39:03;17.90;60.50
26186;DHT22;20067;48.764;9.176;2023-02-22T10:41:40;18.20;61.10
26186;DHT22;20067;48.764;9.176;2023-02-22T10:44:07;18.60;59.60
26186;DHT22;20067;48.764;9.176;2023-02-22T10:46:33;18.90;59.70
26186;DHT22;20067;48.764;9.176;2023-02-22T10:49:04;19.50;58.80
26186;DHT22;20067;48.764;9.176;2023-02-22T10:51:33;19.20;58.00
26186;DHT22;20067;48.764;9.176;2023-02-22T10:54:25;18.50;59.70
26186;DHT22;20067;48.764;9.176;2023-02-22T10:56:54;17.90;60.50
26186;DHT22;20067;48.764;9.176;2023-02-22T11:01:52;18.50;60.00
26186;DHT22;20067;48.764;9.176;2023-02-22T11:04:20;18.90;59.40
26186;DHT22;20067;48.764;9.176;2023-02-22T11:06:49;19.60;58.70
26186;DHT22;20067;48.764;9.176;2023-02-22T11:09:30;20.10;57.40
26186;DHT22;20067;48.764;9.176;2023-02-22T11:12:32;20.40;56.50
26186;DHT22;20067;48.764;9.176;2023-02-22T11:17:45;20.70;56.20
26186;DHT22;20067;48.764;9.176;2023-02-22T11:20:30;19.90;56.70
26186;DHT22;20067;48.764;9.176;2023-02-22T11:23:01;19.40;58.60
26186;DHT22;20067;48.764;9.176;2023-02-22T11:25:34;19.00;58.90
26186;DHT22;20067;48.764;9.176;2023-02-22T11:28:26;19.40;59.10
26186;DHT22;20067;48.764;9.176;2023-02-22T11:30:56;18.90;59.30
26186;DHT22;20067;48.764;9.176;2023-02-22T11:33:24;18.50;60.80
26186;DHT22;20067;48.764;9.176;2023-02-22T11:35:59;18.20;61.70
26186;DHT22;20067;48.764;9.176;2023-02-22T11:38:30;18.20;61.20
26186;DHT22;20067;48.764;9.176;2023-02-22T11:41:34;18.00;62.00
26186;DHT22;20067;48.764;9.176;2023-02-22T11:44:22;17.20;63.60
26186;DHT22;20067;48.764;9.176;2023-02-22T11:46:49;18.20;62.90
26186;DHT22;20067;48.764;9.176;2023-02-22T11:49:15;18.20;62.20
26186;DHT22;20067;48.764;9.176;2023-02-22T11:51:52;17.60;63.20
26186;DHT22;20067;48.764;9.176;2023-02-22T11:54:41;16.80;65.30
26186;DHT22;20067;48.764;9.176;2023-02-22T12:08:05;16.40;67.80
26186;DHT22;20067;48.764;9.176;2023-02-22T12:10:57;16.10;68.10
26186;DHT22;20067;48.764;9.176;2023-02-22T12:22:08;16.30;67.60
26186;DHT22;20067;48.764;9.176;2023-02-22T12:24:48;16.30;67.80
26186;DHT22;20067;48.764;9.176;2023-02-22T12:27:24;16.30;68.50
26186;DHT22;20067;48.764;9.176;2023-02-22T12:30:40;16.40;68.90
26186;DHT22;20067;48.764;9.176;2023-02-22T12:32:46;16.20;68.70
26186;DHT22;20067;48.764;9.176;2023-02-22T12:35:15;16.40;68.60
26186;DHT22;20067;48.764;9.176;2023-02-22T12:43:12;16.30;68.70
26186;DHT22;20067;48.764;9.176;2023-02-22T12:46:01;16.30;68.80
26186;DHT22;20067;48.764;9.176;2023-02-22T12:48:50;16.20;68.50
26186;DHT22;20067;48.764;9.176;2023-02-22T12:51:38;16.10;69.60
26186;DHT22;20067;48.764;9.176;2023-02-22T12:55:03;16.00;69.60
26186;DHT22;20067;48.764;9.176;2023-02-22T12:57:34;16.10;68.90
26186;DHT22;20067;48.764;9.176;2023-02-22T13:03:01;16.20;67.90
26186;DHT22;20067;48.764;9.176;2023-02-22T13:05:36;16.40;68.00
26186;DHT22;20067;48.764;9.176;2023-02-22T13:08:53;16.40;68.20
26186;DHT22;20067;48.764;9.176;2023-02-22T13:19:42;15.80;69.70
26186;DHT22;20067;48.764;9.176;2023-02-22T13:25:07;16.20;68.70
26186;DHT22;20067;48.764;9.176;2023-02-22T13:27:59;16.20;68.40
26186;DHT22;20067;48.764;9.176;2023-02-22T13:30:42;16.10;68.10
26186;DHT22;20067;48.764;9.176;2023-02-22T13:33:29;15.90;68.60
26186;DHT22;20067;48.764;9.176;2023-02-22T13:36:34;16.00;67.90
26186;DHT22;20067;48.764;9.176;2023-02-22T13:39:15;15.50;69.00
26186;DHT22;20067;48.764;9.176;2023-02-22T13:44:44;15.40;69.90
26186;DHT22;20067;48.764;9.176;2023-02-22T13:53:05;15.20;71.00
26186;DHT22;20067;48.764;9.176;2023-02-22T13:55:33;15.10;71.10
26186;DHT22;20067;48.764;9.176;2023-02-22T13:58:11;15.00;71.30
26186;DHT22;20067;48.764;9.176;2023-02-22T14:00:55;15.20;71.20
26186;DHT22;20067;48.764;9.176;2023-02-22T14:05:52;15.10;71.40
26186;DHT22;20067;48.764;9.176;2023-02-22T14:11:05;15.10;71.40
26186;DHT22;20067;48.764;9.176;2023-02-22T14:16:26;15.00;72.20
26186;DHT22;20067;48.764;9.176;2023-02-22T14:22:03;15.20;71.60
26186;DHT22;20067;48.764;9.176;2023-02-22T14:24:45;15.20;71.10
26186;DHT22;20067;48.764;9.176;2023-02-22T14:27:12;14.90;71.90
26186;DHT22;20067;48.764;9.176;2023-02-22T14:29:54;14.80;72.40
26186;DHT22;20067;48.764;9.176;2023-02-22T14:32:29;14.70;72.80
26186;DHT22;20067;48.764;9.176;2023-02-22T14:34:57;14.70;72.90
26186;DHT22;20067;48.764;9.176;2023-02-22T14:37:34;14.80;72.90
26186;DHT22;20067;48.764;9.176;2023-02-22T14:40:07;14.80;73.00
26186;DHT22;20067;48.764;9.176;2023-02-22T14:42:47;14.90;72.60
26186;DHT22;20067;48.764;9.176;2023-02-22T14:45:16;14.80;72.60
26186;DHT22;20067;48.764;9.176;2023-02-22T14:50:58;15.00;72.80
26186;DHT22;20067;48.764;9.176;2023-02-22T14:53:44;15.00;72.90
26186;DHT22;20067;48.764;9.176;2023-02-22T14:56:38;15.00;73.00
26186;DHT22;20067;48.764;9.176;2023-02-22T15:01:42;14.60;73.40
26186;DHT22;20067;48.764;9.176;2023-02-22T15:04:21;14.60;73.60
26186;DHT22;20067;48.764;9.176;2023-02-22T15:06:48;14.60;73.80
26186;DHT22;20067;48.764;9.176;2023-02-22T15:09:20;14.70;73.60
26186;DHT22;20067;48.764;9.176;2023-02-22T15:11:51;14.80;73.70
26186;DHT22;20067;48.764;9.176;2023-02-22T15:14:21;14.90;73.50
26186;DHT22;20067;48.764;9.176;2023-02-22T15:16:54;15.00;73.30
26186;DHT22;20067;48.764;9.176;2023-02-22T15:19:27;15.00;73.00
26186;DHT22;20067;48.764;9.176;2023-02-22T15:21:55;14.90;73.20
26186;DHT22;20067;48.764;9.176;2023-02-22T15:24:28;14.90;73.60
26186;DHT22;20067;48.764;9.176;2023-02-22T15:26:55;14.90;73.90
26186;DHT22;20067;48.764;9.176;2023-02-22T15:29:45;14.90;73.90
26186;DHT22;20067;48.764;9.176;2023-02-22T15:34:51;14.90;73.90
26186;DHT22;20067;48.764;9.176;2023-02-22T15:37:23;14.80;73.80
26186;DHT22;20067;48.764;9.176;2023-02-22T15:40:07;14.80;73.90
26186;DHT22;20067;48.764;9.176;2023-02-22T15:42:43;14.70;74.10
26186;DHT22;20067;48.764;9.176;2023-02-22T15:45:19;14.70;74.10
26186;DHT22;20067;48.764;9.176;2023-02-22T15:47:47;14.50;74.70
26186;DHT22;20067;48.764;9.176;2023-02-22T15:53:01;14.40;75.30
26186;DHT22;20067;48.764;9.176;2023-02-22T15:57:53;14.50;75.30
26186;DHT22;20067;48.764;9.176;2023-02-22T16:00:27;14.50;75.50
26186;DHT22;20067;48.764;9.176;2023-02-22T16:03:02;14.40;75.90
26186;DHT22;20067;48.764;9.176;2023-02-22T16:05:41;14.20;76.60
26186;DHT22;20067;48.764;9.176;2023-02-22T16:08:14;14.10;77.00
26186;DHT22;20067;48.764;9.176;2023-02-22T16:10:52;14.00;77.50
26186;DHT22;20067;48.764;9.176;2023-02-22T16:13:24;13.90;78.00
26186;DHT22;20067;48.764;9.176;2023-02-22T16:15:59;13.90;78.80
26186;DHT22;20067;48.764;9.176;2023-02-22T16:18:36;13.80;79.20
26186;DHT22;20067;48.764;9.176;2023-02-22T16:21:07;13.70;79.70
26186;DHT22;20067;48.764;9.176;2023-02-22T16:23:48;13.60;80.00
26186;DHT22;20067;48.764;9.176;2023-02-22T16:29:08;13.50;80.50
26186;DHT22;20067;48.764;9.176;2023-02-22T16:31:37;13.50;80.50
26186;DHT22;20067;48.764;9.176;2023-02-22T16:34:06;13.50;80.70
26186;DHT22;20067;48.764;9.176;2023-02-22T16:36:46;13.40;81.00
26186;DHT22;20067;48.764;9.176;2023-02-22T16:41:38;13.50;80.70
26186;DHT22;20067;48.764;9.176;2023-02-22T16:44:04;13.40;81.00
26186;DHT22;20067;48.764;9.176;2023-02-22T16:46:32;13.60;80.60
26186;DHT22;20067;48.764;9.176;2023-02-22T16:48:59;13.70;80.30
26186;DHT22;20067;48.764;9.176;2023-02-22T16:51:28;13.70;80.30
26186;DHT22;20067;48.764;9.176;2023-02-22T16:53:56;13.60;80.40
26186;DHT22;20067;48.764;9.176;2023-02-22T16:56:28;13.70;80.30
26186;DHT22;20067;48.764;9.176;2023-02-22T16:58:54;13.60;80.60
26186;DHT22;20067;48.764;9.176;2023-02-22T17:01:19;13.50;80.70
26186;DHT22;20067;48.764;9.176;2023-02-22T17:03:48;13.40;81.00
26186;DHT22;20067;48.764;9.176;2023-02-22T17:06:15;13.40;81.20
26186;DHT22;20067;48.764;9.176;2023-02-22T17:08:41;13.60;80.60
26186;DHT22;20067;48.764;9.176;2023-02-22T17:11:09;13.60;80.50
26186;DHT22;20067;48.764;9.176;2023-02-22T17:13:36;13.60;80.60
26186;DHT22;20067;48.764;9.176;2023-02-22T17:16:05;13.60;80.80
26186;DHT22;20067;48.764;9.176;2023-02-22T17:18:31;13.50;80.60
26186;DHT22;20067;48.764;9.176;2023-02-22T17:21:00;13.50;81.00
26186;DHT22;20067;48.764;9.176;2023-02-22T17:23:27;13.40;81.50
26186;DHT22;20067;48.764;9.176;2023-02-22T17:25:55;13.20;82.00
26186;DHT22;20067;48.764;9.176;2023-02-22T17:28:23;13.00;82.30
26186;DHT22;20067;48.764;9.176;2023-02-22T17:30:50;12.90;82.80
26186;DHT22;20067;48.764;9.176;2023-02-22T17:33:19;12.80;83.10
26186;DHT22;20067;48.764;9.176;2023-02-22T17:35:46;12.80;83.20
26186;DHT22;20067;48.764;9.176;2023-02-22T17:38:14;12.70;83.50
26186;DHT22;20067;48.764;9.176;2023-02-22T17:40:47;12.70;83.30
26186;DHT22;20067;48.764;9.176;2023-02-22T17:43:14;12.70;83.40
26186;DHT22;20067;48.764;9.176;2023-02-22T17:45:41;12.60;83.60
26186;DHT22;20067;48.764;9.176;2023-02-22T17:48:08;12.40;84.10
26186;DHT22;20067;48.764;9.176;2023-02-22T17:50:38;12.30;84.50
26186;DHT22;20067;48.764;9.176;2023-02-22T17:53:05;12.30;84.90
26186;DHT22;20067;48.764;9.176;2023-02-22T17:55:32;12.30;84.90
26186;DHT22;20067;48.764;9.176;2023-02-22T17:58:02;12.30;84.90
26186;DHT22;20067;48.764;9.176;2023-02-22T18:00:34;12.30;84.80
26186;DHT22;20067;48.764;9.176;2023-02-22T18:03:02;12.20;84.90
26186;DHT22;20067;48.764;9.176;2023-02-22T18:05:28;12.10;85.10
26186;DHT22;20067;48.764;9.176;2023-02-22T18:07:54;12.10;85.20